Texanna, Oklahoma
Current Conditions -  °F | °C
As of 7:53 AM on Thursday 27 Nov 2014 (Local Time) from KMKO Reporting Station
Clear Clear  
Wind Chill: -6°   Ceiling: Unl
Heat Index: -2°   Visibility: 10mi
Dew Point: -6°   Wind: 7mph
Humidity: 78%   Direction: 330°NNW
Pressure: 30.58"   Gusts: NA
Location:  35.4498°N, 95.4869°W
Report Text: KMKO 271353Z AUTO 33006KT 10SM CLR M02/M06 A3058 RMK AO2 SLP359 T10221056
Loading
Personal Weather Stations






























Interactive Weather Map New forecast layout! Learn more

10-Day Weather Forecast

Advertisements
Track Severe Weather on mobile